sensor_id;sensor_type;location;lat;lon;timestamp;P1;durP1;ratioP1;P2;durP2;ratioP2
27505;SDS011;14939;43.596;1.320;2022-07-19T00:00:32;5.88;;;3.80;;
27505;SDS011;14939;43.596;1.320;2022-07-19T00:02:58;4.03;;;3.60;;
27505;SDS011;14939;43.596;1.320;2022-07-19T00:05:24;5.50;;;3.88;;
27505;SDS011;14939;43.596;1.320;2022-07-19T00:07:50;6.45;;;3.80;;
27505;SDS011;14939;43.596;1.320;2022-07-19T00:10:17;6.13;;;3.53;;
27505;SDS011;14939;43.596;1.320;2022-07-19T00:12:44;4.72;;;3.67;;
27505;SDS011;14939;43.596;1.320;2022-07-19T00:15:12;4.63;;;3.40;;
27505;SDS011;14939;43.596;1.320;2022-07-19T00:17:40;4.13;;;3.53;;
27505;SDS011;14939;43.596;1.320;2022-07-19T00:20:09;4.40;;;3.53;;
27505;SDS011;14939;43.596;1.320;2022-07-19T00:22:37;5.10;;;3.47;;
27505;SDS011;14939;43.596;1.320;2022-07-19T00:25:03;3.78;;;3.47;;
27505;SDS011;14939;43.596;1.320;2022-07-19T00:27:29;3.53;;;3.22;;
27505;SDS011;14939;43.596;1.320;2022-07-19T00:29:55;3.70;;;3.38;;
27505;SDS011;14939;43.596;1.320;2022-07-19T00:32:20;3.85;;;3.47;;
27505;SDS011;14939;43.596;1.320;2022-07-19T00:34:46;3.97;;;3.55;;
27505;SDS011;14939;43.596;1.320;2022-07-19T00:37:12;5.45;;;3.72;;
27505;SDS011;14939;43.596;1.320;2022-07-19T00:39:37;7.13;;;3.70;;
27505;SDS011;14939;43.596;1.320;2022-07-19T00:42:03;4.28;;;3.75;;
27505;SDS011;14939;43.596;1.320;2022-07-19T00:44:29;5.95;;;3.88;;
27505;SDS011;14939;43.596;1.320;2022-07-19T00:46:55;5.30;;;3.58;;
27505;SDS011;14939;43.596;1.320;2022-07-19T00:49:21;4.60;;;3.63;;
27505;SDS011;14939;43.596;1.320;2022-07-19T00:51:47;6.22;;;4.15;;
27505;SDS011;14939;43.596;1.320;2022-07-19T00:54:19;6.10;;;4.18;;
27505;SDS011;14939;43.596;1.320;2022-07-19T00:56:47;10.13;;;3.95;;
27505;SDS011;14939;43.596;1.320;2022-07-19T00:59:14;5.72;;;3.90;;
27505;SDS011;14939;43.596;1.320;2022-07-19T01:01:40;5.93;;;4.00;;
27505;SDS011;14939;43.596;1.320;2022-07-19T01:04:06;4.43;;;4.03;;
27505;SDS011;14939;43.596;1.320;2022-07-19T01:06:32;6.10;;;4.30;;
27505;SDS011;14939;43.596;1.320;2022-07-19T01:08:58;5.38;;;4.25;;
27505;SDS011;14939;43.596;1.320;2022-07-19T01:11:23;4.90;;;4.40;;
27505;SDS011;14939;43.596;1.320;2022-07-19T01:13:49;5.65;;;4.10;;
27505;SDS011;14939;43.596;1.320;2022-07-19T01:16:15;5.82;;;4.30;;
27505;SDS011;14939;43.596;1.320;2022-07-19T01:18:41;7.03;;;4.82;;
27505;SDS011;14939;43.596;1.320;2022-07-19T01:21:07;5.43;;;4.70;;
27505;SDS011;14939;43.596;1.320;2022-07-19T01:23:49;5.00;;;4.50;;
27505;SDS011;14939;43.596;1.320;2022-07-19T01:26:15;5.63;;;4.65;;
27505;SDS011;14939;43.596;1.320;2022-07-19T01:28:41;6.50;;;4.78;;
27505;SDS011;14939;43.596;1.320;2022-07-19T01:31:08;8.30;;;4.72;;
27505;SDS011;14939;43.596;1.320;2022-07-19T01:33:38;5.28;;;4.78;;
27505;SDS011;14939;43.596;1.320;2022-07-19T01:36:08;5.97;;;5.38;;
27505;SDS011;14939;43.596;1.320;2022-07-19T01:38:34;5.43;;;4.95;;
27505;SDS011;14939;43.596;1.320;2022-07-19T01:41:00;5.93;;;4.80;;
27505;SDS011;14939;43.596;1.320;2022-07-19T01:43:26;6.05;;;5.13;;
27505;SDS011;14939;43.596;1.320;2022-07-19T01:45:52;5.93;;;5.00;;
27505;SDS011;14939;43.596;1.320;2022-07-19T01:48:18;6.22;;;5.00;;
27505;SDS011;14939;43.596;1.320;2022-07-19T01:50:45;7.70;;;5.53;;
27505;SDS011;14939;43.596;1.320;2022-07-19T01:53:10;13.32;;;5.15;;
27505;SDS011;14939;43.596;1.320;2022-07-19T01:55:36;7.55;;;5.40;;
27505;SDS011;14939;43.596;1.320;2022-07-19T01:58:02;6.18;;;5.03;;
27505;SDS011;14939;43.596;1.320;2022-07-19T02:00:27;7.53;;;5.03;;
27505;SDS011;14939;43.596;1.320;2022-07-19T02:02:53;7.45;;;5.30;;
27505;SDS011;14939;43.596;1.320;2022-07-19T02:05:19;8.20;;;5.60;;
27505;SDS011;14939;43.596;1.320;2022-07-19T02:07:44;6.72;;;5.20;;
27505;SDS011;14939;43.596;1.320;2022-07-19T02:10:10;6.07;;;5.47;;
27505;SDS011;14939;43.596;1.320;2022-07-19T02:12:36;5.70;;;5.22;;
27505;SDS011;14939;43.596;1.320;2022-07-19T02:15:02;7.20;;;5.88;;
27505;SDS011;14939;43.596;1.320;2022-07-19T02:17:28;9.15;;;5.80;;
27505;SDS011;14939;43.596;1.320;2022-07-19T02:19:54;7.20;;;5.88;;
27505;SDS011;14939;43.596;1.320;2022-07-19T02:22:20;6.47;;;5.75;;
27505;SDS011;14939;43.596;1.320;2022-07-19T02:24:46;7.00;;;6.00;;
27505;SDS011;14939;43.596;1.320;2022-07-19T02:27:12;6.78;;;6.10;;
27505;SDS011;14939;43.596;1.320;2022-07-19T02:29:37;7.90;;;6.47;;
27505;SDS011;14939;43.596;1.320;2022-07-19T02:32:03;7.18;;;6.50;;
27505;SDS011;14939;43.596;1.320;2022-07-19T02:34:29;7.82;;;6.78;;
27505;SDS011;14939;43.596;1.320;2022-07-19T02:36:55;8.15;;;6.60;;
27505;SDS011;14939;43.596;1.320;2022-07-19T02:39:21;7.32;;;6.72;;
27505;SDS011;14939;43.596;1.320;2022-07-19T02:41:46;7.22;;;6.63;;
27505;SDS011;14939;43.596;1.320;2022-07-19T02:44:12;7.45;;;6.75;;
27505;SDS011;14939;43.596;1.320;2022-07-19T02:46:38;8.00;;;7.20;;
27505;SDS011;14939;43.596;1.320;2022-07-19T02:49:03;8.20;;;7.40;;
27505;SDS011;14939;43.596;1.320;2022-07-19T02:51:29;7.85;;;7.07;;
27505;SDS011;14939;43.596;1.320;2022-07-19T02:53:54;8.38;;;7.43;;
27505;SDS011;14939;43.596;1.320;2022-07-19T02:56:20;7.75;;;6.85;;
27505;SDS011;14939;43.596;1.320;2022-07-19T02:58:46;8.23;;;7.43;;
27505;SDS011;14939;43.596;1.320;2022-07-19T03:01:11;8.45;;;7.40;;
27505;SDS011;14939;43.596;1.320;2022-07-19T03:03:38;9.25;;;7.15;;
27505;SDS011;14939;43.596;1.320;2022-07-19T03:06:12;8.60;;;7.72;;
27505;SDS011;14939;43.596;1.320;2022-07-19T03:08:39;8.13;;;7.30;;
27505;SDS011;14939;43.596;1.320;2022-07-19T03:11:05;9.85;;;7.85;;
27505;SDS011;14939;43.596;1.320;2022-07-19T03:13:31;8.27;;;7.60;;
27505;SDS011;14939;43.596;1.320;2022-07-19T03:15:57;9.20;;;8.27;;
27505;SDS011;14939;43.596;1.320;2022-07-19T03:18:23;8.65;;;7.72;;
27505;SDS011;14939;43.596;1.320;2022-07-19T03:20:48;8.55;;;7.80;;
27505;SDS011;14939;43.596;1.320;2022-07-19T03:23:14;8.90;;;8.02;;
27505;SDS011;14939;43.596;1.320;2022-07-19T03:25:39;8.77;;;8.00;;
27505;SDS011;14939;43.596;1.320;2022-07-19T03:28:05;8.57;;;7.68;;
27505;SDS011;14939;43.596;1.320;2022-07-19T03:30:31;9.27;;;7.82;;
27505;SDS011;14939;43.596;1.320;2022-07-19T03:32:57;8.90;;;8.10;;
27505;SDS011;14939;43.596;1.320;2022-07-19T03:35:23;9.15;;;7.78;;
27505;SDS011;14939;43.596;1.320;2022-07-19T03:37:49;10.80;;;7.68;;
27505;SDS011;14939;43.596;1.320;2022-07-19T03:40:15;10.70;;;7.65;;
27505;SDS011;14939;43.596;1.320;2022-07-19T03:42:40;10.82;;;7.88;;
27505;SDS011;14939;43.596;1.320;2022-07-19T03:45:06;9.57;;;8.07;;
27505;SDS011;14939;43.596;1.320;2022-07-19T03:47:32;9.27;;;7.55;;
27505;SDS011;14939;43.596;1.320;2022-07-19T03:49:58;11.68;;;8.23;;
27505;SDS011;14939;43.596;1.320;2022-07-19T03:52:24;11.45;;;7.68;;
27505;SDS011;14939;43.596;1.320;2022-07-19T03:54:50;8.93;;;8.02;;
27505;SDS011;14939;43.596;1.320;2022-07-19T03:57:16;10.02;;;8.23;;
27505;SDS011;14939;43.596;1.320;2022-07-19T03:59:41;8.90;;;8.07;;
27505;SDS011;14939;43.596;1.320;2022-07-19T04:02:07;10.07;;;8.55;;
27505;SDS011;14939;43.596;1.320;2022-07-19T04:04:33;8.98;;;8.07;;
27505;SDS011;14939;43.596;1.320;2022-07-19T04:06:59;8.75;;;8.05;;
27505;SDS011;14939;43.596;1.320;2022-07-19T04:09:24;10.57;;;8.00;;
27505;SDS011;14939;43.596;1.320;2022-07-19T04:11:50;9.35;;;7.95;;
27505;SDS011;14939;43.596;1.320;2022-07-19T04:14:16;11.00;;;7.50;;
27505;SDS011;14939;43.596;1.320;2022-07-19T04:16:41;8.82;;;7.85;;
27505;SDS011;14939;43.596;1.320;2022-07-19T04:19:07;11.07;;;7.95;;
27505;SDS011;14939;43.596;1.320;2022-07-19T04:21:33;8.63;;;7.82;;
27505;SDS011;14939;43.596;1.320;2022-07-19T04:23:58;9.73;;;8.00;;
27505;SDS011;14939;43.596;1.320;2022-07-19T04:26:24;8.98;;;8.07;;
27505;SDS011;14939;43.596;1.320;2022-07-19T04:28:50;11.27;;;8.15;;
27505;SDS011;14939;43.596;1.320;2022-07-19T04:31:15;9.02;;;8.23;;
27505;SDS011;14939;43.596;1.320;2022-07-19T04:33:41;8.63;;;7.75;;
27505;SDS011;14939;43.596;1.320;2022-07-19T04:36:07;9.30;;;7.90;;
27505;SDS011;14939;43.596;1.320;2022-07-19T04:38:33;9.50;;;8.60;;
27505;SDS011;14939;43.596;1.320;2022-07-19T04:40:59;9.23;;;8.32;;
27505;SDS011;14939;43.596;1.320;2022-07-19T04:43:25;8.65;;;7.85;;
27505;SDS011;14939;43.596;1.320;2022-07-19T04:45:51;11.52;;;8.20;;
27505;SDS011;14939;43.596;1.320;2022-07-19T04:48:16;10.23;;;8.57;;
27505;SDS011;14939;43.596;1.320;2022-07-19T04:50:42;9.25;;;8.32;;
27505;SDS011;14939;43.596;1.320;2022-07-19T04:53:08;9.88;;;8.82;;
27505;SDS011;14939;43.596;1.320;2022-07-19T04:55:36;10.27;;;8.57;;
27505;SDS011;14939;43.596;1.320;2022-07-19T04:58:02;11.57;;;8.40;;
27505;SDS011;14939;43.596;1.320;2022-07-19T05:00:28;10.48;;;8.85;;
27505;SDS011;14939;43.596;1.320;2022-07-19T05:02:54;9.55;;;7.88;;
27505;SDS011;14939;43.596;1.320;2022-07-19T05:05:21;11.52;;;8.50;;
27505;SDS011;14939;43.596;1.320;2022-07-19T05:07:48;9.18;;;8.27;;
27505;SDS011;14939;43.596;1.320;2022-07-19T05:10:14;11.77;;;7.72;;
27505;SDS011;14939;43.596;1.320;2022-07-19T05:12:40;8.55;;;7.65;;
27505;SDS011;14939;43.596;1.320;2022-07-19T05:15:07;11.35;;;8.13;;
27505;SDS011;14939;43.596;1.320;2022-07-19T05:17:33;8.57;;;7.25;;
27505;SDS011;14939;43.596;1.320;2022-07-19T05:19:59;8.85;;;7.57;;
27505;SDS011;14939;43.596;1.320;2022-07-19T05:22:25;14.50;;;7.85;;
27505;SDS011;14939;43.596;1.320;2022-07-19T05:24:51;26.77;;;7.80;;
27505;SDS011;14939;43.596;1.320;2022-07-19T05:27:18;8.68;;;7.35;;
27505;SDS011;14939;43.596;1.320;2022-07-19T05:29:45;9.20;;;7.18;;
27505;SDS011;14939;43.596;1.320;2022-07-19T05:32:10;8.02;;;7.32;;
27505;SDS011;14939;43.596;1.320;2022-07-19T05:34:36;9.07;;;7.43;;
27505;SDS011;14939;43.596;1.320;2022-07-19T05:37:02;8.27;;;7.35;;
27505;SDS011;14939;43.596;1.320;2022-07-19T05:39:28;9.60;;;7.10;;
27505;SDS011;14939;43.596;1.320;2022-07-19T05:41:54;8.52;;;7.03;;
27505;SDS011;14939;43.596;1.320;2022-07-19T05:44:19;254.23;;;15.43;;
27505;SDS011;14939;43.596;1.320;2022-07-19T05:46:46;13.60;;;6.70;;
27505;SDS011;14939;43.596;1.320;2022-07-19T05:49:12;18.30;;;6.75;;
27505;SDS011;14939;43.596;1.320;2022-07-19T05:51:38;153.07;;;12.35;;
27505;SDS011;14939;43.596;1.320;2022-07-19T05:54:04;15.25;;;7.43;;
27505;SDS011;14939;43.596;1.320;2022-07-19T05:56:31;7.53;;;6.47;;
27505;SDS011;14939;43.596;1.320;2022-07-19T05:58:57;12.60;;;6.90;;
27505;SDS011;14939;43.596;1.320;2022-07-19T06:01:23;144.57;;;12.70;;
27505;SDS011;14939;43.596;1.320;2022-07-19T06:03:50;33.33;;;7.80;;
27505;SDS011;14939;43.596;1.320;2022-07-19T06:06:21;9.95;;;6.47;;
27505;SDS011;14939;43.596;1.320;2022-07-19T06:08:47;7.43;;;6.57;;
27505;SDS011;14939;43.596;1.320;2022-07-19T06:11:14;7.78;;;6.97;;
27505;SDS011;14939;43.596;1.320;2022-07-19T06:13:40;7.60;;;6.75;;
27505;SDS011;14939;43.596;1.320;2022-07-19T06:16:07;7.50;;;6.80;;
27505;SDS011;14939;43.596;1.320;2022-07-19T06:18:33;21.73;;;7.50;;
27505;SDS011;14939;43.596;1.320;2022-07-19T06:21:00;8.70;;;6.90;;
27505;SDS011;14939;43.596;1.320;2022-07-19T06:23:27;10.88;;;6.93;;
27505;SDS011;14939;43.596;1.320;2022-07-19T06:25:52;7.75;;;6.93;;
27505;SDS011;14939;43.596;1.320;2022-07-19T06:28:18;7.45;;;6.70;;
27505;SDS011;14939;43.596;1.320;2022-07-19T06:30:44;24.58;;;7.50;;
27505;SDS011;14939;43.596;1.320;2022-07-19T06:33:09;24.77;;;7.60;;
27505;SDS011;14939;43.596;1.320;2022-07-19T06:35:35;26.02;;;7.25;;
27505;SDS011;14939;43.596;1.320;2022-07-19T06:38:00;7.43;;;6.72;;
27505;SDS011;14939;43.596;1.320;2022-07-19T06:40:26;10.00;;;7.07;;
27505;SDS011;14939;43.596;1.320;2022-07-19T06:42:52;43.28;;;8.02;;
27505;SDS011;14939;43.596;1.320;2022-07-19T06:45:18;9.60;;;6.75;;
27505;SDS011;14939;43.596;1.320;2022-07-19T06:47:44;8.10;;;6.80;;
27505;SDS011;14939;43.596;1.320;2022-07-19T06:50:10;10.00;;;6.70;;
27505;SDS011;14939;43.596;1.320;2022-07-19T06:52:35;7.22;;;6.50;;
27505;SDS011;14939;43.596;1.320;2022-07-19T06:55:01;12.40;;;7.25;;
27505;SDS011;14939;43.596;1.320;2022-07-19T06:57:27;8.48;;;6.65;;
27505;SDS011;14939;43.596;1.320;2022-07-19T06:59:52;8.07;;;6.68;;
27505;SDS011;14939;43.596;1.320;2022-07-19T07:02:18;8.52;;;6.68;;
27505;SDS011;14939;43.596;1.320;2022-07-19T07:04:44;8.70;;;6.57;;
27505;SDS011;14939;43.596;1.320;2022-07-19T07:07:09;8.63;;;6.45;;
27505;SDS011;14939;43.596;1.320;2022-07-19T07:09:35;9.68;;;6.60;;
27505;SDS011;14939;43.596;1.320;2022-07-19T07:12:00;10.20;;;6.53;;
27505;SDS011;14939;43.596;1.320;2022-07-19T07:14:26;6.93;;;6.25;;
27505;SDS011;14939;43.596;1.320;2022-07-19T07:16:52;13.35;;;6.80;;
27505;SDS011;14939;43.596;1.320;2022-07-19T07:19:18;7.57;;;6.53;;
27505;SDS011;14939;43.596;1.320;2022-07-19T07:21:43;8.10;;;6.63;;
27505;SDS011;14939;43.596;1.320;2022-07-19T07:24:09;8.75;;;6.05;;
27505;SDS011;14939;43.596;1.320;2022-07-19T07:26:35;9.60;;;6.20;;
27505;SDS011;14939;43.596;1.320;2022-07-19T07:29:00;8.32;;;6.25;;
27505;SDS011;14939;43.596;1.320;2022-07-19T07:31:26;12.88;;;6.35;;
27505;SDS011;14939;43.596;1.320;2022-07-19T07:33:52;8.95;;;6.78;;
27505;SDS011;14939;43.596;1.320;2022-07-19T07:36:17;6.85;;;6.25;;
27505;SDS011;14939;43.596;1.320;2022-07-19T07:38:43;9.85;;;5.93;;
27505;SDS011;14939;43.596;1.320;2022-07-19T07:41:09;26.98;;;7.18;;
27505;SDS011;14939;43.596;1.320;2022-07-19T07:43:35;12.13;;;5.95;;
27505;SDS011;14939;43.596;1.320;2022-07-19T07:46:01;10.40;;;6.05;;
27505;SDS011;14939;43.596;1.320;2022-07-19T07:48:27;13.23;;;5.80;;
27505;SDS011;14939;43.596;1.320;2022-07-19T07:50:53;8.20;;;6.57;;
27505;SDS011;14939;43.596;1.320;2022-07-19T07:53:18;9.23;;;6.88;;
27505;SDS011;14939;43.596;1.320;2022-07-19T07:55:44;6.40;;;5.80;;
27505;SDS011;14939;43.596;1.320;2022-07-19T07:58:10;11.90;;;6.93;;
27505;SDS011;14939;43.596;1.320;2022-07-19T08:00:37;56.13;;;7.68;;
27505;SDS011;14939;43.596;1.320;2022-07-19T08:03:03;9.77;;;6.25;;
27505;SDS011;14939;43.596;1.320;2022-07-19T08:05:29;10.50;;;6.60;;
27505;SDS011;14939;43.596;1.320;2022-07-19T08:07:56;19.65;;;7.20;;
27505;SDS011;14939;43.596;1.320;2022-07-19T08:10:22;8.07;;;6.22;;
27505;SDS011;14939;43.596;1.320;2022-07-19T08:12:50;11.23;;;6.45;;
27505;SDS011;14939;43.596;1.320;2022-07-19T08:15:16;10.88;;;6.75;;
27505;SDS011;14939;43.596;1.320;2022-07-19T08:17:42;10.75;;;6.97;;
27505;SDS011;14939;43.596;1.320;2022-07-19T08:20:08;10.88;;;6.95;;
27505;SDS011;14939;43.596;1.320;2022-07-19T08:22:34;11.80;;;7.13;;
27505;SDS011;14939;43.596;1.320;2022-07-19T08:25:00;8.32;;;7.20;;
27505;SDS011;14939;43.596;1.320;2022-07-19T08:27:26;11.98;;;7.20;;
27505;SDS011;14939;43.596;1.320;2022-07-19T08:29:52;11.48;;;7.38;;
27505;SDS011;14939;43.596;1.320;2022-07-19T08:32:18;11.68;;;7.50;;
27505;SDS011;14939;43.596;1.320;2022-07-19T08:34:43;11.88;;;7.50;;
27505;SDS011;14939;43.596;1.320;2022-07-19T08:37:09;10.32;;;7.05;;
27505;SDS011;14939;43.596;1.320;2022-07-19T08:39:35;143.05;;;12.30;;
27505;SDS011;14939;43.596;1.320;2022-07-19T08:42:00;10.23;;;7.50;;
27505;SDS011;14939;43.596;1.320;2022-07-19T08:44:26;11.63;;;7.97;;
27505;SDS011;14939;43.596;1.320;2022-07-19T08:46:53;22.50;;;7.90;;
27505;SDS011;14939;43.596;1.320;2022-07-19T08:49:20;12.48;;;8.48;;
27505;SDS011;14939;43.596;1.320;2022-07-19T08:51:47;10.73;;;7.20;;
27505;SDS011;14939;43.596;1.320;2022-07-19T08:54:13;9.43;;;7.45;;
27505;SDS011;14939;43.596;1.320;2022-07-19T08:56:40;13.32;;;8.00;;
27505;SDS011;14939;43.596;1.320;2022-07-19T08:59:24;15.15;;;8.25;;
27505;SDS011;14939;43.596;1.320;2022-07-19T09:01:50;12.30;;;8.50;;
27505;SDS011;14939;43.596;1.320;2022-07-19T09:04:17;32.80;;;9.40;;
27505;SDS011;14939;43.596;1.320;2022-07-19T09:06:51;12.35;;;8.70;;
27505;SDS011;14939;43.596;1.320;2022-07-19T09:09:25;13.85;;;8.50;;
27505;SDS011;14939;43.596;1.320;2022-07-19T09:11:57;11.68;;;8.68;;
27505;SDS011;14939;43.596;1.320;2022-07-19T09:14:32;10.65;;;8.20;;
27505;SDS011;14939;43.596;1.320;2022-07-19T09:17:04;11.88;;;7.88;;
27505;SDS011;14939;43.596;1.320;2022-07-19T09:19:42;14.35;;;8.38;;
27505;SDS011;14939;43.596;1.320;2022-07-19T09:22:11;12.43;;;8.20;;
27505;SDS011;14939;43.596;1.320;2022-07-19T09:24:47;11.45;;;8.20;;
27505;SDS011;14939;43.596;1.320;2022-07-19T09:27:15;13.88;;;8.50;;
27505;SDS011;14939;43.596;1.320;2022-07-19T09:29:44;13.07;;;8.93;;
27505;SDS011;14939;43.596;1.320;2022-07-19T09:32:15;11.20;;;8.07;;
27505;SDS011;14939;43.596;1.320;2022-07-19T09:37:25;10.65;;;8.25;;
27505;SDS011;14939;43.596;1.320;2022-07-19T09:39:54;11.13;;;8.10;;
27505;SDS011;14939;43.596;1.320;2022-07-19T09:45:01;11.88;;;8.93;;
27505;SDS011;14939;43.596;1.320;2022-07-19T09:47:35;11.85;;;8.07;;
27505;SDS011;14939;43.596;1.320;2022-07-19T09:50:04;9.23;;;8.38;;
27505;SDS011;14939;43.596;1.320;2022-07-19T09:52:34;11.05;;;8.57;;
27505;SDS011;14939;43.596;1.320;2022-07-19T09:55:02;13.38;;;8.48;;
27505;SDS011;14939;43.596;1.320;2022-07-19T09:57:29;11.70;;;8.77;;
27505;SDS011;14939;43.596;1.320;2022-07-19T09:59:59;18.00;;;8.88;;
27505;SDS011;14939;43.596;1.320;2022-07-19T10:02:28;12.73;;;7.95;;
27505;SDS011;14939;43.596;1.320;2022-07-19T10:04:54;115.20;;;12.43;;
27505;SDS011;14939;43.596;1.320;2022-07-19T10:07:22;11.20;;;8.27;;
27505;SDS011;14939;43.596;1.320;2022-07-19T10:09:48;10.38;;;7.85;;
27505;SDS011;14939;43.596;1.320;2022-07-19T10:12:15;10.35;;;7.47;;
27505;SDS011;14939;43.596;1.320;2022-07-19T10:14:41;9.05;;;7.82;;
27505;SDS011;14939;43.596;1.320;2022-07-19T10:17:14;9.77;;;8.20;;
27505;SDS011;14939;43.596;1.320;2022-07-19T10:19:49;12.80;;;8.75;;
27505;SDS011;14939;43.596;1.320;2022-07-19T10:22:17;10.75;;;8.27;;
27505;SDS011;14939;43.596;1.320;2022-07-19T10:24:56;17.08;;;8.85;;
27505;SDS011;14939;43.596;1.320;2022-07-19T10:27:37;12.15;;;8.23;;
27505;SDS011;14939;43.596;1.320;2022-07-19T10:32:37;17.13;;;8.73;;
27505;SDS011;14939;43.596;1.320;2022-07-19T10:37:41;14.20;;;7.65;;
27505;SDS011;14939;43.596;1.320;2022-07-19T10:40:08;9.98;;;7.88;;
27505;SDS011;14939;43.596;1.320;2022-07-19T10:42:35;10.25;;;7.78;;
27505;SDS011;14939;43.596;1.320;2022-07-19T10:50:09;9.38;;;7.20;;
27505;SDS011;14939;43.596;1.320;2022-07-19T10:52:47;11.30;;;7.20;;
27505;SDS011;14939;43.596;1.320;2022-07-19T11:00:20;14.95;;;8.00;;
27505;SDS011;14939;43.596;1.320;2022-07-19T11:02:48;9.23;;;7.97;;
27505;SDS011;14939;43.596;1.320;2022-07-19T11:05:28;15.32;;;8.30;;
27505;SDS011;14939;43.596;1.320;2022-07-19T11:07:55;7.85;;;7.05;;
27505;SDS011;14939;43.596;1.320;2022-07-19T11:12:55;8.82;;;6.57;;
27505;SDS011;14939;43.596;1.320;2022-07-19T11:15:23;9.93;;;6.70;;
27505;SDS011;14939;43.596;1.320;2022-07-19T11:17:54;8.35;;;6.88;;
27505;SDS011;14939;43.596;1.320;2022-07-19T11:20:21;8.13;;;6.80;;
27505;SDS011;14939;43.596;1.320;2022-07-19T11:22:54;8.38;;;7.05;;
27505;SDS011;14939;43.596;1.320;2022-07-19T11:25:28;11.07;;;7.20;;
27505;SDS011;14939;43.596;1.320;2022-07-19T11:27:56;12.90;;;7.20;;
27505;SDS011;14939;43.596;1.320;2022-07-19T11:30:23;11.18;;;6.80;;
27505;SDS011;14939;43.596;1.320;2022-07-19T11:32:53;8.63;;;6.28;;
27505;SDS011;14939;43.596;1.320;2022-07-19T11:35:24;7.55;;;6.50;;
27505;SDS011;14939;43.596;1.320;2022-07-19T11:37:51;9.00;;;7.00;;
27505;SDS011;14939;43.596;1.320;2022-07-19T11:40:19;7.68;;;6.05;;
27505;SDS011;14939;43.596;1.320;2022-07-19T11:42:46;7.05;;;6.20;;
27505;SDS011;14939;43.596;1.320;2022-07-19T11:45:14;7.60;;;6.43;;
27505;SDS011;14939;43.596;1.320;2022-07-19T11:47:46;8.70;;;6.45;;
27505;SDS011;14939;43.596;1.320;2022-07-19T11:50:17;7.45;;;6.70;;
27505;SDS011;14939;43.596;1.320;2022-07-19T11:52:47;8.48;;;6.47;;
27505;SDS011;14939;43.596;1.320;2022-07-19T11:55:41;10.10;;;6.30;;
27505;SDS011;14939;43.596;1.320;2022-07-19T11:58:07;7.00;;;6.00;;
27505;SDS011;14939;43.596;1.320;2022-07-19T12:00:35;10.20;;;6.60;;
27505;SDS011;14939;43.596;1.320;2022-07-19T12:03:05;12.63;;;6.45;;
27505;SDS011;14939;43.596;1.320;2022-07-19T12:05:33;7.45;;;6.70;;
27505;SDS011;14939;43.596;1.320;2022-07-19T12:08:02;8.10;;;6.18;;
27505;SDS011;14939;43.596;1.320;2022-07-19T12:10:43;9.40;;;5.90;;
27505;SDS011;14939;43.596;1.320;2022-07-19T12:13:11;9.77;;;5.70;;
27505;SDS011;14939;43.596;1.320;2022-07-19T12:15:46;7.85;;;5.57;;
27505;SDS011;14939;43.596;1.320;2022-07-19T12:18:15;9.35;;;6.07;;
27505;SDS011;14939;43.596;1.320;2022-07-19T12:20:42;10.10;;;6.70;;
27505;SDS011;14939;43.596;1.320;2022-07-19T12:23:13;6.63;;;5.82;;
27505;SDS011;14939;43.596;1.320;2022-07-19T12:25:41;10.88;;;6.18;;
27505;SDS011;14939;43.596;1.320;2022-07-19T12:28:07;7.05;;;5.70;;
27505;SDS011;14939;43.596;1.320;2022-07-19T12:30:33;7.28;;;5.75;;
27505;SDS011;14939;43.596;1.320;2022-07-19T12:33:05;7.47;;;5.97;;
27505;SDS011;14939;43.596;1.320;2022-07-19T12:35:45;8.25;;;5.78;;
27505;SDS011;14939;43.596;1.320;2022-07-19T12:38:12;8.95;;;5.82;;
27505;SDS011;14939;43.596;1.320;2022-07-19T12:40:40;6.82;;;5.93;;
27505;SDS011;14939;43.596;1.320;2022-07-19T12:43:07;8.38;;;5.80;;
27505;SDS011;14939;43.596;1.320;2022-07-19T12:45:44;8.88;;;5.50;;
27505;SDS011;14939;43.596;1.320;2022-07-19T12:48:12;8.52;;;5.38;;
27505;SDS011;14939;43.596;1.320;2022-07-19T12:50:44;6.10;;;5.43;;
27505;SDS011;14939;43.596;1.320;2022-07-19T12:53:13;10.27;;;5.57;;
27505;SDS011;14939;43.596;1.320;2022-07-19T12:55:41;8.82;;;5.47;;
27505;SDS011;14939;43.596;1.320;2022-07-19T12:58:10;10.10;;;5.30;;
27505;SDS011;14939;43.596;1.320;2022-07-19T13:00:37;8.00;;;5.47;;
27505;SDS011;14939;43.596;1.320;2022-07-19T13:03:04;8.63;;;5.25;;
27505;SDS011;14939;43.596;1.320;2022-07-19T13:05:31;9.15;;;5.50;;
27505;SDS011;14939;43.596;1.320;2022-07-19T13:07:57;10.50;;;5.20;;
27505;SDS011;14939;43.596;1.320;2022-07-19T13:10:24;8.75;;;5.45;;
27505;SDS011;14939;43.596;1.320;2022-07-19T13:12:54;7.38;;;5.10;;
27505;SDS011;14939;43.596;1.320;2022-07-19T13:15:20;8.13;;;5.65;;
27505;SDS011;14939;43.596;1.320;2022-07-19T13:17:45;7.63;;;5.35;;
27505;SDS011;14939;43.596;1.320;2022-07-19T13:20:11;9.85;;;5.55;;
27505;SDS011;14939;43.596;1.320;2022-07-19T13:22:38;7.65;;;5.07;;
27505;SDS011;14939;43.596;1.320;2022-07-19T13:25:06;7.85;;;5.35;;
27505;SDS011;14939;43.596;1.320;2022-07-19T13:27:32;9.95;;;5.13;;
27505;SDS011;14939;43.596;1.320;2022-07-19T13:29:58;9.77;;;5.25;;
27505;SDS011;14939;43.596;1.320;2022-07-19T13:32:24;9.10;;;5.20;;
27505;SDS011;14939;43.596;1.320;2022-07-19T13:34:50;7.68;;;4.55;;
27505;SDS011;14939;43.596;1.320;2022-07-19T13:37:15;5.38;;;4.72;;
27505;SDS011;14939;43.596;1.320;2022-07-19T13:39:41;6.95;;;4.32;;
27505;SDS011;14939;43.596;1.320;2022-07-19T13:42:07;7.03;;;4.53;;
27505;SDS011;14939;43.596;1.320;2022-07-19T13:44:33;6.63;;;4.95;;
27505;SDS011;14939;43.596;1.320;2022-07-19T13:46:59;8.45;;;4.70;;
27505;SDS011;14939;43.596;1.320;2022-07-19T13:49:25;8.00;;;4.63;;
27505;SDS011;14939;43.596;1.320;2022-07-19T13:51:51;6.15;;;4.40;;
27505;SDS011;14939;43.596;1.320;2022-07-19T13:54:17;5.50;;;4.10;;
27505;SDS011;14939;43.596;1.320;2022-07-19T13:56:42;7.28;;;4.53;;
27505;SDS011;14939;43.596;1.320;2022-07-19T13:59:08;6.53;;;4.50;;
27505;SDS011;14939;43.596;1.320;2022-07-19T14:01:34;7.07;;;4.78;;
27505;SDS011;14939;43.596;1.320;2022-07-19T14:04:00;5.50;;;4.63;;
27505;SDS011;14939;43.596;1.320;2022-07-19T14:06:26;5.40;;;4.43;;
27505;SDS011;14939;43.596;1.320;2022-07-19T14:08:52;9.90;;;3.80;;
27505;SDS011;14939;43.596;1.320;2022-07-19T14:11:18;5.97;;;4.40;;
27505;SDS011;14939;43.596;1.320;2022-07-19T14:13:44;4.60;;;4.15;;
27505;SDS011;14939;43.596;1.320;2022-07-19T14:16:10;5.80;;;4.20;;
27505;SDS011;14939;43.596;1.320;2022-07-19T14:18:36;6.53;;;4.03;;
27505;SDS011;14939;43.596;1.320;2022-07-19T14:21:02;4.43;;;4.00;;
27505;SDS011;14939;43.596;1.320;2022-07-19T14:23:28;7.35;;;3.97;;
27505;SDS011;14939;43.596;1.320;2022-07-19T14:25:55;6.40;;;4.20;;
27505;SDS011;14939;43.596;1.320;2022-07-19T14:28:21;6.28;;;4.20;;
27505;SDS011;14939;43.596;1.320;2022-07-19T14:30:47;6.00;;;4.30;;
27505;SDS011;14939;43.596;1.320;2022-07-19T14:33:12;8.93;;;4.40;;
27505;SDS011;14939;43.596;1.320;2022-07-19T14:35:38;7.43;;;4.22;;
27505;SDS011;14939;43.596;1.320;2022-07-19T14:38:04;7.97;;;4.50;;
27505;SDS011;14939;43.596;1.320;2022-07-19T14:40:30;6.95;;;4.20;;
27505;SDS011;14939;43.596;1.320;2022-07-19T14:42:55;10.88;;;4.30;;
27505;SDS011;14939;43.596;1.320;2022-07-19T14:45:21;6.35;;;3.92;;
27505;SDS011;14939;43.596;1.320;2022-07-19T14:47:47;6.13;;;3.85;;
27505;SDS011;14939;43.596;1.320;2022-07-19T14:50:12;4.10;;;3.67;;
27505;SDS011;14939;43.596;1.320;2022-07-19T14:52:39;4.43;;;3.97;;
27505;SDS011;14939;43.596;1.320;2022-07-19T14:55:05;6.63;;;4.43;;
27505;SDS011;14939;43.596;1.320;2022-07-19T14:57:32;5.28;;;4.25;;
27505;SDS011;14939;43.596;1.320;2022-07-19T14:59:58;6.03;;;4.18;;
27505;SDS011;14939;43.596;1.320;2022-07-19T15:02:24;6.18;;;3.95;;
27505;SDS011;14939;43.596;1.320;2022-07-19T15:04:50;5.63;;;3.90;;